Time;durP1;ratioP1;P1;durP2;ratioP2;P2;SDS_P1;SDS_P2;PMS_P1;PMS_P2;Temp;Humidity;BMP_temperature;BMP_pressure;BME280_temperature;BME280_humidity;BME280_pressure;Samples;Min_cycle;Max_cycle;Signal;HPM_P1;HPM_P2
2023/08/05 00:01:41;;;;;;;1.35;0.80;;;;;;;28.77;58.06;99479.22;5091411;28;20194;-71
2023/08/05 00:04:10;;;;;;;1.77;1.15;;;;;;;28.81;57.91;99483.38;5091405;28;20193;-71
2023/08/05 00:06:36;;;;;;;1.77;0.95;;;;;;;28.64;58.47;99469.47;5091327;28;20209;-71
2023/08/05 00:09:03;;;;;;;0.70;0.70;;;;;;;28.58;58.91;99476.06;5091425;28;20194;-71
2023/08/05 00:11:30;;;;;;;3.78;0.90;;;;;;;28.56;59.19;99469.97;5055899;28;20201;-71
2023/08/05 00:13:57;;;;;;;0.85;0.85;;;;;;;28.42;59.20;99438.06;5091212;28;20253;-71
2023/08/05 00:16:23;;;;;;;1.92;1.10;;;;;;;28.35;59.89;99439.44;5095369;28;20201;-71
2023/08/05 00:18:50;;;;;;;0.70;0.70;;;;;;;28.40;60.14;99456.84;5095371;28;20208;-70
2023/08/05 00:21:20;;;;;;;2.75;0.90;;;;;;;28.43;60.17;99461.13;5095377;28;20201;-71
2023/08/05 00:23:47;;;;;;;0.70;0.70;;;;;;;28.36;60.10;99449.16;5094896;28;20649;-70
2023/08/05 00:26:14;;;;;;;1.55;0.90;;;;;;;28.40;59.96;99450.63;5095209;28;20244;-70
2023/08/05 00:28:40;;;;;;;0.60;0.60;;;;;;;28.37;60.16;99456.19;5095041;28;20208;-71
2023/08/05 00:31:09;;;;;;;1.85;1.05;;;;;;;28.40;60.23;99454.16;5095194;28;20209;-71
2023/08/05 00:33:35;;;;;;;2.13;0.75;;;;;;;28.33;60.92;99454.69;5094996;28;20257;-72
2023/08/05 00:36:02;;;;;;;2.15;0.80;;;;;;;28.19;60.42;99425.44;5094909;28;20213;-71
2023/08/05 00:38:30;;;;;;;1.02;0.90;;;;;;;28.18;60.58;99421.94;5094981;28;20209;-70
2023/08/05 00:40:57;;;;;;;0.70;0.70;;;;;;;28.28;60.72;99448.81;5094783;28;20193;-70
2023/08/05 00:43:24;;;;;;;2.15;0.95;;;;;;;28.25;60.87;99441.91;5093297;28;20198;-70
2023/08/05 00:45:51;;;;;;;0.70;0.70;;;;;;;28.25;60.81;99446.38;5094900;28;20194;-71
2023/08/05 00:48:17;;;;;;;0.90;0.80;;;;;;;28.23;61.06;99448.25;5094914;28;20202;-71
2023/08/05 00:50:45;;;;;;;1.20;1.15;;;;;;;28.22;61.78;99446.56;5094762;28;20193;-71
2023/08/05 00:53:14;;;;;;;3.92;1.02;;;;;;;28.11;62.41;99457.09;5094596;28;20217;-71
2023/08/05 00:55:42;;;;;;;2.55;0.95;;;;;;;27.93;66.68;99453.81;5094512;28;20202;-72
2023/08/05 00:58:10;;;;;;;1.88;1.42;;;;;;;27.46;74.12;99451.59;5094588;28;20229;-71
2023/08/05 01:00:36;;;;;;;2.08;0.90;;;;;;;27.26;78.13;99449.28;5094503;28;20198;-71
2023/08/05 01:03:03;;;;;;;1.15;0.88;;;;;;;27.14;79.97;99450.94;5094544;28;20206;-71
2023/08/05 01:05:31;;;;;;;1.75;0.93;;;;;;;26.93;81.82;99426.50;5094573;28;20198;-71
2023/08/05 01:07:58;;;;;;;1.02;0.98;;;;;;;26.89;83.72;99440.97;5094328;28;20198;-71
2023/08/05 01:10:25;;;;;;;0.77;0.77;;;;;;;26.84;85.09;99440.38;5094238;28;20217;-71
2023/08/05 01:12:54;;;;;;;2.38;1.35;;;;;;;26.75;88.45;99432.94;5094190;28;20206;-71
2023/08/05 01:15:21;;;;;;;2.40;0.95;;;;;;;26.68;89.08;99436.94;5094448;28;20202;-71
2023/08/05 01:17:48;;;;;;;2.67;1.00;;;;;;;26.59;90.44;99419.72;5075378;28;20213;-71
2023/08/05 01:20:16;;;;;;;0.80;0.80;;;;;;;26.65;92.18;99415.81;5094410;28;20209;-71
2023/08/05 01:22:44;;;;;;;1.63;0.85;;;;;;;26.55;94.97;99410.22;5094040;28;20210;-71
2023/08/05 01:25:27;;;;;;;1.65;0.80;;;;;;;26.52;96.21;99405.09;5058187;28;20221;-71
2023/08/05 01:27:55;;;;;;;2.92;0.93;;;;;;;26.40;98.09;99394.31;5058105;28;20281;-71
2023/08/05 01:30:23;;;;;;;0.70;0.70;;;;;;;26.35;99.59;99396.44;5094110;28;20631;-71
2023/08/05 01:32:52;;;;;;;3.72;1.88;;;;;;;26.35;100.00;99413.25;5093811;28;20206;-71
2023/08/05 01:35:22;;;;;;;0.70;0.70;;;;;;;26.24;100.00;99401.53;5093838;28;20653;-70
2023/08/05 01:37:48;;;;;;;2.40;0.95;;;;;;;26.27;100.00;99419.94;5093828;28;20249;-71
2023/08/05 01:40:15;;;;;;;0.70;0.70;;;;;;;25.82;100.00;99347.31;5093974;28;20202;-71
2023/08/05 01:42:43;;;;;;;3.17;0.98;;;;;;;26.13;100.00;99397.69;5093708;28;20202;-70
2023/08/05 01:45:10;;;;;;;0.60;0.60;;;;;;;26.01;100.00;99398.41;5093706;28;20202;-71
2023/08/05 01:47:37;;;;;;;3.67;1.05;;;;;;;25.96;100.00;99403.16;5093531;28;20221;-71
2023/08/05 01:50:05;;;;;;;0.70;0.70;;;;;;;25.96;100.00;99413.78;5058065;28;20209;-71
2023/08/05 01:52:32;;;;;;;3.90;1.23;;;;;;;25.78;100.00;99401.56;5093677;28;20217;-71
2023/08/05 01:54:59;;;;;;;0.75;0.75;;;;;;;25.83;100.00;99412.75;5093481;28;20232;-70
2023/08/05 01:57:26;;;;;;;1.55;0.80;;;;;;;25.62;100.00;99400.72;5093534;28;20198;-71
2023/08/05 01:59:54;;;;;;;0.90;0.90;;;;;;;25.60;100.00;99414.09;5093343;28;20198;-70
2023/08/05 02:02:21;;;;;;;1.67;0.80;;;;;;;25.50;100.00;99418.19;5093381;28;20194;-70
2023/08/05 02:04:47;;;;;;;0.70;0.70;;;;;;;25.37;100.00;99421.59;5093551;28;20209;-70
2023/08/05 02:07:14;;;;;;;1.55;0.80;;;;;;;24.83;100.00;99351.22;5093445;28;20201;-70
2023/08/05 02:09:41;;;;;;;0.70;0.70;;;;;;;25.23;100.00;99422.38;5093235;28;20202;-70
2023/08/05 02:12:08;;;;;;;5.45;1.35;;;;;;;25.21;100.00;99428.72;5057516;28;20194;-70
2023/08/05 02:14:35;;;;;;;0.70;0.70;;;;;;;25.10;100.00;99424.84;5092904;28;20222;-69
2023/08/05 02:17:03;;;;;;;3.10;0.95;;;;;;;25.06;100.00;99414.47;5093182;28;20202;-70
2023/08/05 02:19:30;;;;;;;0.70;0.70;;;;;;;24.94;100.00;99416.00;5093197;28;20202;-70
2023/08/05 02:21:56;;;;;;;4.50;1.10;;;;;;;24.86;100.00;99415.59;5093063;28;20211;-70
2023/08/05 02:24:23;;;;;;;0.80;0.80;;;;;;;24.86;100.00;99415.59;5093275;28;20237;-70
2023/08/05 02:26:50;;;;;;;3.20;1.00;;;;;;;24.85;100.00;99403.25;5057143;28;20195;-69
2023/08/05 02:29:17;;;;;;;0.70;0.70;;;;;;;24.80;100.00;99405.25;5092894;28;20213;-70
2023/08/05 02:31:43;;;;;;;4.18;1.00;;;;;;;24.35;100.00;99344.09;5092896;28;20195;-70
2023/08/05 02:34:11;;;;;;;3.45;1.10;;;;;;;24.52;100.00;99387.31;5093230;28;20217;-70
2023/08/05 02:36:38;;;;;;;0.85;0.82;;;;;;;24.53;100.00;99402.28;5093272;28;20259;-70
2023/08/05 02:39:05;;;;;;;3.33;1.00;;;;;;;24.50;100.00;99401.59;5093267;28;20267;-70
2023/08/05 02:41:32;;;;;;;0.70;0.70;;;;;;;24.51;100.00;99411.22;5092567;28;20201;-75
2023/08/05 02:43:58;;;;;;;4.18;2.25;;;;;;;24.44;100.00;99412.50;5092951;28;20667;-74
2023/08/05 02:46:25;;;;;;;0.70;0.70;;;;;;;24.21;100.00;99395.16;5092695;28;20198;-74
2023/08/05 02:48:52;;;;;;;4.05;1.02;;;;;;;24.17;100.00;99414.78;5057420;28;20201;-75
2023/08/05 02:51:20;;;;;;;0.70;0.70;;;;;;;24.20;100.00;99411.97;5092961;28;20202;-75
2023/08/05 02:53:47;;;;;;;4.68;1.15;;;;;;;24.21;100.00;99420.78;5092697;28;20226;-75
2023/08/05 02:56:14;;;;;;;1.02;1.02;;;;;;;24.23;100.00;99424.19;5092357;28;20198;-77
2023/08/05 02:58:40;;;;;;;3.40;1.10;;;;;;;24.11;100.00;99418.56;5092296;28;20213;-75
2023/08/05 03:01:08;;;;;;;0.70;0.70;;;;;;;23.97;100.00;99405.16;5092686;28;20198;-75
2023/08/05 03:03:34;;;;;;;1.17;1.08;;;;;;;23.91;100.00;99413.41;5092689;28;20202;-75
2023/08/05 03:06:01;;;;;;;0.70;0.70;;;;;;;23.87;100.00;99411.84;5092729;28;20259;-76
2023/08/05 03:08:29;;;;;;;1.55;0.95;;;;;;;23.90;100.00;99406.41;5092342;28;20710;-75
2023/08/05 03:10:59;;;;;;;2.58;1.13;;;;;;;23.87;100.00;99406.56;5092749;28;20848;-75
2023/08/05 03:13:25;;;;;;;2.70;1.08;;;;;;;23.61;100.00;99394.63;5092351;28;20198;-77
2023/08/05 03:15:53;;;;;;;0.80;0.80;;;;;;;23.64;100.00;99409.50;5092147;28;20676;-77
2023/08/05 03:18:20;;;;;;;3.90;1.10;;;;;;;23.45;100.00;99387.50;5092124;28;20206;-75
2023/08/05 03:20:48;;;;;;;0.88;0.88;;;;;;;23.50;100.00;99411.97;5092050;28;20202;-75
2023/08/05 03:23:15;;;;;;;2.65;1.00;;;;;;;23.36;100.00;99399.38;5091895;28;20599;-73
2023/08/05 03:25:43;;;;;;;0.80;0.80;;;;;;;23.42;100.00;99403.53;5087515;28;20202;-75
2023/08/05 03:28:10;;;;;;;1.50;0.82;;;;;;;23.44;100.00;99401.66;5062778;28;20206;-77
2023/08/05 03:30:37;;;;;;;0.60;0.60;;;;;;;23.45;100.00;99408.66;5091491;28;20246;-75
2023/08/05 03:33:03;;;;;;;2.47;0.90;;;;;;;23.35;100.00;99405.56;5091670;28;20194;-75
2023/08/05 03:35:30;;;;;;;0.80;0.80;;;;;;;23.37;100.00;99410.78;5092053;28;20225;-76
2023/08/05 03:37:57;;;;;;;4.25;1.13;;;;;;;23.31;100.00;99411.09;5091586;28;20202;-75
2023/08/05 03:40:24;;;;;;;0.70;0.70;;;;;;;23.36;100.00;99417.88;5091570;28;20210;-74
2023/08/05 03:42:52;;;;;;;4.47;1.13;;;;;;;23.23;100.00;99388.50;5091682;28;20198;-75
2023/08/05 03:45:19;;;;;;;0.70;0.70;;;;;;;23.59;100.00;99408.84;5091331;28;20595;-75
2023/08/05 03:47:49;;;;;;;2.60;0.98;;;;;;;24.03;100.00;99410.16;5081855;28;20233;-75
2023/08/05 03:50:16;;;;;;;0.60;0.60;;;;;;;24.43;100.00;99397.56;5090513;28;20288;-76
2023/08/05 03:52:43;;;;;;;4.85;1.13;;;;;;;24.89;100.00;99410.09;5091185;28;20235;-77
2023/08/05 03:55:10;;;;;;;0.70;0.70;;;;;;;25.29;100.00;99413.22;5091032;28;20229;-76
2023/08/05 03:57:36;;;;;;;2.20;0.90;;;;;;;25.58;100.00;99428.38;5091038;28;20198;-76
2023/08/05 04:00:07;;;;;;;0.70;0.70;;;;;;;25.80;97.52;99426.22;5091812;28;20194;-77
2023/08/05 04:02:34;;;;;;;2.28;0.93;;;;;;;25.79;97.71;99428.97;5088743;28;20198;-73
2023/08/05 04:05:01;;;;;;;0.70;0.70;;;;;;;26.12;94.93;99422.53;5055612;28;20194;-75
2023/08/05 04:07:28;;;;;;;3.00;0.98;;;;;;;26.00;95.58;99423.28;5046852;28;20669;-75
2023/08/05 04:09:55;;;;;;;0.80;0.80;;;;;;;25.96;96.82;99419.09;5090991;28;20198;-74
2023/08/05 04:12:21;;;;;;;2.05;0.90;;;;;;;26.20;94.92;99421.25;5090989;28;20209;-75
2023/08/05 04:14:50;;;;;;;1.30;0.70;;;;;;;26.20;95.31;99408.84;5091264;28;20226;-75
2023/08/05 04:17:19;;;;;;;1.70;0.88;;;;;;;26.46;95.07;99402.81;5091439;28;20206;-75
2023/08/05 04:19:46;;;;;;;1.27;0.70;;;;;;;26.17;98.16;99422.28;5091388;28;20702;-72
2023/08/05 04:22:14;;;;;;;0.93;0.85;;;;;;;26.29;99.13;99423.38;5091646;28;20206;-74
2023/08/05 04:24:42;;;;;;;1.85;0.90;;;;;;;26.57;98.15;99418.97;5091203;28;20238;-74
2023/08/05 04:27:09;;;;;;;1.30;0.80;;;;;;;26.76;96.97;99420.47;5090437;28;20222;-77
2023/08/05 04:29:36;;;;;;;2.20;0.82;;;;;;;26.42;99.45;99388.00;5091087;28;20205;-74
2023/08/05 04:32:03;;;;;;;0.73;0.73;;;;;;;26.68;98.75;99413.00;5089596;28;20198;-74
2023/08/05 04:34:36;;;;;;;4.68;1.02;;;;;;;26.86;98.49;99419.84;5089663;28;20318;-70
2023/08/05 04:37:16;;;;;;;6.93;1.80;;;;;;;26.59;99.64;99389.59;5090317;28;20190;-71
2023/08/05 04:39:42;;;;;;;0.77;0.77;;;;;;;26.75;100.00;99405.50;5089599;28;20225;-72
2023/08/05 04:42:09;;;;;;;5.07;1.10;;;;;;;27.02;98.14;99415.28;5091030;28;20190;-72
2023/08/05 04:44:37;;;;;;;0.68;0.68;;;;;;;27.19;97.75;99432.84;5090683;28;20198;-71
2023/08/05 04:47:04;;;;;;;4.65;1.92;;;;;;;27.01;98.95;99440.19;5088914;28;20194;-71
2023/08/05 04:49:32;;;;;;;0.63;0.63;;;;;;;26.90;99.58;99429.34;5086227;28;20198;-72
2023/08/05 04:55:09;;;;;;;2.50;0.98;;;;;;;27.38;97.21;99437.88;5105013;27;1333048;-72
2023/08/05 04:57:36;;;;;;;2.65;1.38;;;;;;;26.91;96.89;99374.34;5130172;28;20201;-72
2023/08/05 05:00:03;;;;;;;1.80;1.08;;;;;;;27.13;99.62;99432.38;5129305;28;20208;-72
2023/08/05 05:02:30;;;;;;;1.35;0.73;;;;;;;27.30;98.56;99442.81;5113293;28;20197;-72
2023/08/05 05:04:57;;;;;;;2.05;1.00;;;;;;;26.99;98.17;99362.25;5124516;28;20219;-71
2023/08/05 05:07:24;;;;;;;0.82;0.80;;;;;;;27.50;98.05;99437.94;5118607;28;20216;-75
2023/08/05 05:09:50;;;;;;;2.60;1.38;;;;;;;27.55;98.21;99435.00;5122346;28;20200;-76
2023/08/05 05:12:19;;;;;;;0.70;0.70;;;;;;;27.25;100.00;99420.97;5112408;28;20205;-73
2023/08/05 05:14:46;;;;;;;0.90;0.80;;;;;;;27.02;100.00;99425.94;5057930;28;20210;-73
2023/08/05 05:17:15;;;;;;;1.25;1.20;;;;;;;27.49;100.00;99419.41;5110541;28;20200;-72
2023/08/05 05:19:42;;;;;;;0.85;0.70;;;;;;;27.75;100.00;99426.56;5121291;28;20201;-71
2023/08/05 05:22:09;;;;;;;0.73;0.55;;;;;;;28.06;97.71;99404.06;5117268;28;20208;-71
2023/08/05 05:24:35;;;;;;;1.90;1.35;;;;;;;28.06;98.87;99415.56;5120495;28;20228;-72
2023/08/05 05:27:02;;;;;;;1.73;1.60;;;;;;;27.84;100.00;99409.97;5126227;28;20192;-71
2023/08/05 05:29:30;;;;;;;1.77;0.88;;;;;;;27.09;100.00;99350.06;5078856;28;20656;-71
2023/08/05 05:31:57;;;;;;;0.70;0.70;;;;;;;27.32;100.00;99406.31;5121000;28;20212;-72
2023/08/05 05:34:24;;;;;;;0.85;0.85;;;;;;;27.24;100.00;99420.13;5117655;28;20197;-71
2023/08/05 05:36:51;;;;;;;0.77;0.77;;;;;;;26.95;100.00;99375.84;5108352;28;20208;-70
2023/08/05 05:39:17;;;;;;;4.88;1.45;;;;;;;27.00;100.00;99419.00;5125493;28;20212;-69
2023/08/05 05:41:44;;;;;;;0.85;0.85;;;;;;;26.89;100.00;99422.34;5127853;28;20193;-71
2023/08/05 05:44:11;;;;;;;2.05;1.00;;;;;;;26.92;100.00;99413.31;5128604;28;20229;-70
2023/08/05 05:46:39;;;;;;;0.80;0.80;;;;;;;27.07;100.00;99423.84;5127100;28;20209;-71
2023/08/05 05:49:06;;;;;;;3.22;1.13;;;;;;;27.21;100.00;99432.75;5128723;28;20234;-70
2023/08/05 05:51:34;;;;;;;1.73;0.93;;;;;;;27.53;100.00;99426.25;5124382;28;20216;-71
2023/08/05 05:54:01;;;;;;;2.72;1.05;;;;;;;27.34;100.00;99417.72;5084704;28;20228;-70
2023/08/05 05:56:28;;;;;;;0.80;0.80;;;;;;;27.09;100.00;99400.66;5121381;28;20197;-71
2023/08/05 05:58:55;;;;;;;1.98;1.05;;;;;;;27.11;100.00;99422.69;5070146;28;20197;-70
2023/08/05 06:01:23;;;;;;;4.65;1.27;;;;;;;27.13;100.00;99427.06;5083398;28;20288;-69
2023/08/05 06:03:51;;;;;;;0.80;0.80;;;;;;;27.38;100.00;99422.75;5127853;28;20466;-71
2023/08/05 06:06:18;;;;;;;0.90;0.90;;;;;;;27.35;100.00;99422.94;5105270;28;20194;-69
2023/08/05 06:08:45;;;;;;;1.38;0.80;;;;;;;27.28;100.00;99420.78;5110858;28;20205;-69
2023/08/05 06:11:12;;;;;;;0.80;0.80;;;;;;;27.43;100.00;99419.78;5109922;28;20649;-69
2023/08/05 06:13:39;;;;;;;0.63;0.63;;;;;;;27.27;100.00;99413.72;5098922;28;20696;-71
2023/08/05 06:16:06;;;;;;;1.85;0.85;;;;;;;27.40;100.00;99419.97;5100462;28;20210;-71
2023/08/05 06:18:32;;;;;;;2.58;1.10;;;;;;;27.34;100.00;99386.63;5099436;28;20217;-70
2023/08/05 06:21:01;;;;;;;1.75;1.02;;;;;;;27.57;100.00;99415.28;5100733;28;20981;-71
2023/08/05 06:23:27;;;;;;;0.80;0.80;;;;;;;27.59;100.00;99417.88;5099938;28;20254;-69
2023/08/05 06:25:54;;;;;;;1.17;0.80;;;;;;;27.64;100.00;99401.59;5096331;28;20209;-71
2023/08/05 06:28:21;;;;;;;0.73;0.73;;;;;;;27.72;100.00;99392.13;5048436;28;20217;-70
2023/08/05 06:30:48;;;;;;;1.85;0.90;;;;;;;28.04;100.00;99401.47;5108504;28;20209;-69
2023/08/05 06:33:14;;;;;;;0.80;0.75;;;;;;;28.16;100.00;99402.50;5060985;28;20210;-71
2023/08/05 06:35:41;;;;;;;1.92;0.90;;;;;;;28.14;100.00;99400.91;5113635;28;20209;-70
2023/08/05 06:38:09;;;;;;;0.60;0.60;;;;;;;28.29;100.00;99378.53;5113060;28;20205;-71
2023/08/05 06:40:36;;;;;;;1.25;0.93;;;;;;;28.66;100.00;99385.69;5104547;28;20201;-70
2023/08/05 06:43:03;;;;;;;1.45;0.90;;;;;;;28.86;96.36;99392.31;5109701;28;20208;-73
2023/08/05 06:45:31;;;;;;;1.55;0.80;;;;;;;29.17;96.94;99383.81;5105260;28;20232;-70
2023/08/05 06:47:57;;;;;;;1.58;0.90;;;;;;;29.19;89.41;99359.66;5110252;28;20300;-70
2023/08/05 06:50:24;;;;;;;0.93;0.82;;;;;;;29.36;86.71;99367.34;5104905;28;20209;-72
2023/08/05 06:52:51;;;;;;;0.73;0.73;;;;;;;29.44;81.18;99376.47;5107545;28;20216;-69
2023/08/05 06:55:19;;;;;;;3.30;1.05;;;;;;;29.63;73.84;99381.31;5113221;28;20651;-73
2023/08/05 06:57:48;;;;;;;2.17;0.90;;;;;;;29.73;68.24;99342.25;5060538;28;20193;-70
2023/08/05 07:00:15;;;;;;;1.25;1.25;;;;;;;30.09;70.03;99373.38;5077797;28;20204;-72
2023/08/05 07:02:42;;;;;;;1.98;1.17;;;;;;;30.23;69.35;99359.81;5105365;28;20709;-71
2023/08/05 07:05:09;;;;;;;1.83;0.98;;;;;;;30.35;61.55;99361.53;5094752;28;20229;-71
2023/08/05 07:07:36;;;;;;;1.95;1.00;;;;;;;30.50;57.03;99364.88;5099849;28;20198;-70
2023/08/05 07:10:07;;;;;;;0.70;0.70;;;;;;;30.69;56.84;99357.09;5092896;28;20205;-70
2023/08/05 07:12:36;;;;;;;1.00;0.75;;;;;;;30.83;53.15;99372.91;5096998;28;20228;-70
2023/08/05 07:15:03;;;;;;;0.70;0.70;;;;;;;30.66;54.38;99297.59;5098747;28;20212;-71
2023/08/05 07:17:30;;;;;;;1.85;0.85;;;;;;;30.97;50.53;99353.94;5099046;28;20193;-70
2023/08/05 07:19:57;;;;;;;0.60;0.60;;;;;;;31.09;50.96;99359.28;5046300;28;20858;-70
2023/08/05 07:22:24;;;;;;;2.30;0.80;;;;;;;31.42;50.43;99372.63;5109520;28;20214;-72
2023/08/05 07:24:54;;;;;;;0.70;0.70;;;;;;;31.71;49.26;99372.91;5094463;28;20229;-71
2023/08/05 07:27:20;;;;;;;3.53;1.15;;;;;;;31.47;48.54;99354.31;5102069;28;20197;-70
2023/08/05 07:29:48;;;;;;;0.80;0.80;;;;;;;31.65;48.59;99368.91;5097797;28;20205;-75
2023/08/05 07:32:15;;;;;;;1.13;0.80;;;;;;;31.57;48.57;99333.84;5112236;28;20215;-72
2023/08/05 07:34:42;;;;;;;1.95;0.95;;;;;;;31.67;48.46;99344.66;5112817;28;20225;-71
2023/08/05 07:37:09;;;;;;;0.88;0.80;;;;;;;31.77;49.83;99357.16;5111102;28;20667;-73
2023/08/05 07:39:37;;;;;;;1.75;0.82;;;;;;;31.93;48.93;99345.97;5107094;28;20333;-72
2023/08/05 07:42:05;;;;;;;0.70;0.70;;;;;;;31.62;47.99;99312.88;5102137;28;20291;-74
2023/08/05 07:44:32;;;;;;;1.52;1.50;;;;;;;31.76;48.82;99299.16;5104372;28;20318;-72
2023/08/05 07:47:00;;;;;;;0.70;0.70;;;;;;;32.03;48.13;99336.19;5100680;28;20276;-73
2023/08/05 07:49:28;;;;;;;2.58;0.98;;;;;;;32.19;47.83;99320.50;5109986;28;20217;-72
2023/08/05 07:51:55;;;;;;;0.73;0.73;;;;;;;32.15;47.80;99328.94;5055948;28;20212;-72
2023/08/05 07:54:23;;;;;;;2.17;1.00;;;;;;;32.14;48.00;99330.75;5106067;28;20234;-72
2023/08/05 07:56:51;;;;;;;0.82;0.73;;;;;;;32.19;46.20;99319.66;5091058;28;20215;-73
2023/08/05 07:59:20;;;;;;;5.93;1.42;;;;;;;32.23;45.23;99326.47;5098513;28;20197;-72
2023/08/05 08:01:46;;;;;;;0.70;0.70;;;;;;;32.10;45.25;99321.31;5052656;28;20192;-71
2023/08/05 08:04:15;;;;;;;0.70;0.70;;;;;;;32.27;45.04;99322.53;5071184;28;20222;-72
2023/08/05 08:06:43;;;;;;;0.73;0.70;;;;;;;32.32;45.83;99328.38;5096929;28;20193;-74
2023/08/05 08:09:10;;;;;;;1.25;0.88;;;;;;;32.36;44.96;99332.44;5046559;28;20668;-71
2023/08/05 08:11:37;;;;;;;0.63;0.63;;;;;;;32.50;45.88;99316.00;5097602;28;20205;-70
2023/08/05 08:14:04;;;;;;;2.17;1.10;;;;;;;32.62;44.63;99338.28;5099611;28;20205;-71
2023/08/05 08:16:31;;;;;;;1.10;1.08;;;;;;;32.63;44.31;99342.66;5098178;28;20225;-70
2023/08/05 08:18:58;;;;;;;2.83;1.10;;;;;;;32.65;44.28;99338.84;5091978;28;20209;-72
2023/08/05 08:21:26;;;;;;;1.65;1.00;;;;;;;32.75;43.20;99323.63;5100299;28;20205;-75
2023/08/05 08:23:53;;;;;;;2.30;0.95;;;;;;;32.88;43.78;99326.94;5097934;28;20224;-72
2023/08/05 08:26:19;;;;;;;0.60;0.60;;;;;;;32.95;42.46;99332.63;5097399;28;20208;-69
2023/08/05 08:28:46;;;;;;;1.63;0.88;;;;;;;33.22;41.26;99318.56;5092154;28;20206;-70
2023/08/05 08:31:13;;;;;;;0.90;0.77;;;;;;;33.43;41.44;99318.47;5104638;28;20197;-70
2023/08/05 08:33:40;;;;;;;0.95;0.80;;;;;;;33.46;41.11;99319.03;5104656;28;20215;-70
2023/08/05 08:36:06;;;;;;;0.95;0.90;;;;;;;33.54;40.20;99313.78;5102620;28;20209;-69
2023/08/05 08:38:34;;;;;;;1.75;0.93;;;;;;;33.44;39.50;99325.50;5101533;28;20192;-70
2023/08/05 08:41:03;;;;;;;1.55;0.85;;;;;;;33.51;39.04;99327.50;5105268;28;20209;-69
2023/08/05 08:43:31;;;;;;;1.75;0.88;;;;;;;33.75;40.82;99313.66;5104429;28;20274;-68
2023/08/05 08:45:58;;;;;;;1.50;0.80;;;;;;;34.03;39.21;99333.47;5066737;28;20224;-70
2023/08/05 08:48:27;;;;;;;2.10;0.93;;;;;;;34.22;39.43;99314.59;5087435;28;20575;-70
2023/08/05 08:50:55;;;;;;;2.25;0.98;;;;;;;34.40;38.44;99326.31;5092647;28;20209;-69
2023/08/05 08:53:22;;;;;;;2.97;1.15;;;;;;;34.34;37.72;99316.16;5089446;28;20228;-71
2023/08/05 08:55:50;;;;;;;0.70;0.70;;;;;;;34.46;37.94;99319.53;5100171;28;20598;-72
2023/08/05 08:58:17;;;;;;;0.70;0.70;;;;;;;34.23;37.33;99297.47;5093873;28;20189;-70
2023/08/05 09:00:44;;;;;;;2.90;1.15;;;;;;;34.00;36.63;99304.16;5088761;28;20201;-69
2023/08/05 09:03:12;;;;;;;1.10;0.70;;;;;;;34.14;36.87;99303.75;5040417;28;20212;-71
2023/08/05 09:05:42;;;;;;;1.45;0.88;;;;;;;34.06;36.70;99300.88;5102998;28;20221;-70
2023/08/05 09:08:10;;;;;;;0.60;0.60;;;;;;;34.22;36.43;99290.38;5046504;28;20209;-70
2023/08/05 09:10:37;;;;;;;1.48;0.95;;;;;;;34.25;36.44;99290.09;5058363;28;20250;-73
2023/08/05 09:13:07;;;;;;;0.60;0.60;;;;;;;34.26;37.42;99286.41;5092348;28;20288;-72
2023/08/05 09:15:34;;;;;;;1.17;0.77;;;;;;;34.43;37.34;99288.31;5090714;28;20217;-72
2023/08/05 09:18:03;;;;;;;0.65;0.65;;;;;;;34.49;37.03;99273.44;5091051;28;20206;-72
2023/08/05 09:20:32;;;;;;;1.95;0.88;;;;;;;34.53;36.89;99272.16;5092063;28;20573;-71
2023/08/05 09:23:01;;;;;;;0.60;0.60;;;;;;;34.47;36.57;99253.88;5092046;28;20212;-71
2023/08/05 09:25:28;;;;;;;3.95;1.20;;;;;;;34.64;36.15;99280.91;5093573;28;20267;-71
2023/08/05 09:27:56;;;;;;;0.70;0.70;;;;;;;34.37;36.44;99245.84;5098881;28;20689;-74
2023/08/05 09:30:25;;;;;;;0.80;0.70;;;;;;;34.72;36.95;99272.06;5102868;28;20352;-76
2023/08/05 09:32:53;;;;;;;0.60;0.60;;;;;;;34.72;35.36;99274.75;5102676;28;20216;-72
2023/08/05 09:35:21;;;;;;;2.95;1.02;;;;;;;34.67;34.57;99269.84;5109825;28;20209;-69
2023/08/05 09:37:48;;;;;;;0.65;0.65;;;;;;;34.81;35.03;99274.72;5109985;28;20679;-71
2023/08/05 09:40:17;;;;;;;1.20;0.80;;;;;;;34.79;34.19;99274.03;5111298;28;20200;-70
2023/08/05 09:42:48;;;;;;;1.55;0.88;;;;;;;35.00;33.54;99275.59;5112949;28;20296;-71
2023/08/05 09:45:15;;;;;;;3.78;1.23;;;;;;;34.95;32.49;99267.97;5059267;28;20715;-72
2023/08/05 09:47:47;;;;;;;1.58;0.80;;;;;;;35.07;32.85;99258.66;5113838;28;20213;-71
2023/08/05 09:50:14;;;;;;;2.45;0.95;;;;;;;35.00;32.79;99259.41;5113872;28;20205;-71
2023/08/05 09:52:42;;;;;;;0.75;0.60;;;;;;;35.00;33.17;99259.41;5111969;28;20209;-76
2023/08/05 09:55:13;;;;;;;0.60;0.60;;;;;;;35.01;34.50;99220.69;5110084;28;20652;-73
2023/08/05 09:57:41;;;;;;;1.67;1.17;;;;;;;35.21;33.40;99257.34;5098999;28;20221;-73
2023/08/05 10:00:10;;;;;;;0.63;0.63;;;;;;;35.27;33.25;99251.31;5103441;28;20210;-70
2023/08/05 10:02:38;;;;;;;0.70;0.70;;;;;;;35.27;33.41;99224.38;5050045;28;20631;-71
2023/08/05 10:05:06;;;;;;;0.95;0.70;;;;;;;35.35;33.44;99240.63;5098611;28;20270;-71
2023/08/05 10:07:33;;;;;;;0.60;0.60;;;;;;;35.32;32.87;99262.47;5094922;28;20668;-72
2023/08/05 10:10:00;;;;;;;0.98;0.63;;;;;;;35.64;33.62;99248.50;5103228;28;20225;-70
2023/08/05 10:12:30;;;;;;;0.73;0.70;;;;;;;35.85;32.87;99245.44;5096149;28;20277;-70
2023/08/05 10:14:59;;;;;;;2.50;1.00;;;;;;;35.69;32.40;99243.47;5105701;28;20194;-70
2023/08/05 10:17:26;;;;;;;6.55;1.85;;;;;;;35.76;33.58;99242.69;5100670;28;20217;-71
2023/08/05 10:19:53;;;;;;;1.55;0.90;;;;;;;35.83;32.66;99236.63;5104704;28;20212;-71
2023/08/05 10:22:23;;;;;;;1.02;0.90;;;;;;;35.67;32.45;99221.19;5103672;28;20198;-70
2023/08/05 10:24:54;;;;;;;0.57;0.57;;;;;;;35.74;33.07;99254.63;5098990;28;20235;-71
2023/08/05 10:27:40;;;;;;;2.78;1.05;;;;;;;35.75;31.68;99230.19;5095544;28;20194;-73
2023/08/05 10:30:09;;;;;;;1.05;0.75;;;;;;;35.51;32.05;99240.75;5097830;28;20205;-72
2023/08/05 10:32:48;;;;;;;1.20;0.70;;;;;;;35.63;32.38;99225.22;5101230;28;20201;-72
2023/08/05 10:35:25;;;;;;;4.57;1.25;;;;;;;35.86;32.75;99230.91;5100533;28;20605;-72
2023/08/05 10:38:06;;;;;;;1.50;0.88;;;;;;;35.96;32.04;99232.50;5092541;28;20237;-72
2023/08/05 10:40:40;;;;;;;0.77;0.77;;;;;;;36.02;31.91;99231.03;5093608;28;20247;-72
2023/08/05 10:43:10;;;;;;;0.80;0.80;;;;;;;36.00;32.19;99236.59;5098153;28;21651;-71
2023/08/05 10:45:41;;;;;;;1.13;0.70;;;;;;;35.82;32.30;99210.69;5099418;28;20245;-71
2023/08/05 10:48:09;;;;;;;1.17;0.88;;;;;;;36.00;32.05;99220.38;5093993;28;20400;-73
2023/08/05 10:50:36;;;;;;;0.85;0.70;;;;;;;35.76;32.53;99209.44;5097741;28;20194;-72
2023/08/05 10:53:12;;;;;;;0.63;0.63;;;;;;;35.88;31.80;99212.72;5102100;28;20284;-70
2023/08/05 10:55:47;;;;;;;0.70;0.70;;;;;;;35.99;31.99;99215.16;5097764;28;20263;-72
2023/08/05 10:58:14;;;;;;;2.90;0.98;;;;;;;35.96;31.90;99220.88;5091451;28;20197;-72
2023/08/05 11:00:42;;;;;;;0.80;0.80;;;;;;;35.92;32.06;99208.72;5102294;28;20200;-70
2023/08/05 11:03:26;;;;;;;1.50;0.77;;;;;;;35.93;32.30;99216.63;5091730;28;20242;-70
2023/08/05 11:05:55;;;;;;;2.63;0.93;;;;;;;35.82;32.24;99207.97;5095970;28;20229;-72
2023/08/05 11:08:23;;;;;;;0.60;0.60;;;;;;;35.94;32.35;99195.91;5092070;28;20233;-72
2023/08/05 11:10:51;;;;;;;0.70;0.70;;;;;;;36.08;32.63;99200.72;5103829;28;20251;-70
2023/08/05 11:13:18;;;;;;;0.93;0.80;;;;;;;36.17;32.28;99187.09;5092194;28;20200;-70
2023/08/05 11:16:01;;;;;;;0.60;0.60;;;;;;;36.27;32.17;99192.41;5057349;28;20563;-71
2023/08/05 11:18:28;;;;;;;0.82;0.65;;;;;;;36.36;32.46;99188.72;5075926;28;20189;-71
2023/08/05 11:20:55;;;;;;;0.65;0.65;;;;;;;36.34;32.40;99179.94;5103279;28;20258;-71
2023/08/05 11:23:24;;;;;;;1.20;1.13;;;;;;;36.07;31.97;99174.69;5092988;28;20210;-71
2023/08/05 11:25:50;;;;;;;0.60;0.60;;;;;;;36.13;32.58;99163.31;5105187;28;20233;-71
2023/08/05 11:28:18;;;;;;;1.85;0.82;;;;;;;36.19;31.85;99165.34;5091862;28;20664;-71
2023/08/05 11:30:44;;;;;;;0.60;0.60;;;;;;;36.22;31.78;99173.13;5107930;28;20201;-71
2023/08/05 11:33:11;;;;;;;0.80;0.70;;;;;;;36.32;31.14;99170.31;5094388;28;20213;-72
2023/08/05 11:35:43;;;;;;;1.20;0.73;;;;;;;36.45;31.51;99182.34;5107463;28;20265;-72
2023/08/05 11:38:10;;;;;;;2.47;0.90;;;;;;;36.34;31.55;99149.38;5098889;28;20219;-72